sensor_id;sensor_type;location;lat;lon;timestamp;temperature;humidity
72865;DHT22;61000;48.120;11.548;2024-01-11T00:02:08;-4.50;99.90
72865;DHT22;61000;48.120;11.548;2024-01-11T00:04:35;-4.50;99.90
72865;DHT22;61000;48.120;11.548;2024-01-11T00:07:02;-4.40;99.90
72865;DHT22;61000;48.120;11.548;2024-01-11T00:09:29;-4.50;99.90
72865;DHT22;61000;48.120;11.548;2024-01-11T00:11:56;-4.50;99.90
72865;DHT22;61000;48.120;11.548;2024-01-11T00:14:23;-4.50;99.90
72865;DHT22;61000;48.120;11.548;2024-01-11T00:16:51;-4.50;99.90
72865;DHT22;61000;48.120;11.548;2024-01-11T00:19:18;-4.50;99.90
72865;DHT22;61000;48.120;11.548;2024-01-11T00:21:59;-4.50;99.90
72865;DHT22;61000;48.120;11.548;2024-01-11T00:24:26;-4.50;99.90
72865;DHT22;61000;48.120;11.548;2024-01-11T00:26:53;-4.40;99.90
72865;DHT22;61000;48.120;11.548;2024-01-11T00:29:20;-4.40;99.90
72865;DHT22;61000;48.120;11.548;2024-01-11T00:31:47;-4.50;99.90
72865;DHT22;61000;48.120;11.548;2024-01-11T00:34:15;-4.50;99.90
72865;DHT22;61000;48.120;11.548;2024-01-11T00:36:42;-4.50;99.90
72865;DHT22;61000;48.120;11.548;2024-01-11T00:39:09;-4.50;99.90
72865;DHT22;61000;48.120;11.548;2024-01-11T00:41:37;-4.50;99.90
72865;DHT22;61000;48.120;11.548;2024-01-11T00:44:04;-4.60;99.90
72865;DHT22;61000;48.120;11.548;2024-01-11T00:46:32;-4.60;99.90
72865;DHT22;61000;48.120;11.548;2024-01-11T00:48:59;-4.60;99.90
72865;DHT22;61000;48.120;11.548;2024-01-11T00:51:27;-4.60;99.90
72865;DHT22;61000;48.120;11.548;2024-01-11T00:53:54;-4.60;99.90
72865;DHT22;61000;48.120;11.548;2024-01-11T00:56:21;-4.70;99.90
72865;DHT22;61000;48.120;11.548;2024-01-11T00:58:48;-4.70;99.90
72865;DHT22;61000;48.120;11.548;2024-01-11T01:01:15;-4.60;99.90
72865;DHT22;61000;48.120;11.548;2024-01-11T01:03:42;-4.60;99.90
72865;DHT22;61000;48.120;11.548;2024-01-11T01:06:09;-4.60;99.90
72865;DHT22;61000;48.120;11.548;2024-01-11T01:08:37;-4.60;99.90
72865;DHT22;61000;48.120;11.548;2024-01-11T01:11:04;-4.60;99.90
72865;DHT22;61000;48.120;11.548;2024-01-11T01:13:31;-4.60;99.90
72865;DHT22;61000;48.120;11.548;2024-01-11T01:15:58;-4.60;99.90
72865;DHT22;61000;48.120;11.548;2024-01-11T01:18:25;-4.60;99.90
72865;DHT22;61000;48.120;11.548;2024-01-11T01:20:51;-4.50;99.90
72865;DHT22;61000;48.120;11.548;2024-01-11T01:23:18;-4.60;99.90
72865;DHT22;61000;48.120;11.548;2024-01-11T01:25:47;-4.50;99.90
72865;DHT22;61000;48.120;11.548;2024-01-11T01:28:14;-4.50;99.90
72865;DHT22;61000;48.120;11.548;2024-01-11T01:30:41;-4.50;99.90
72865;DHT22;61000;48.120;11.548;2024-01-11T01:33:07;-4.50;99.90
72865;DHT22;61000;48.120;11.548;2024-01-11T01:35:34;-4.50;99.90
72865;DHT22;61000;48.120;11.548;2024-01-11T01:38:02;-4.50;99.90
72865;DHT22;61000;48.120;11.548;2024-01-11T01:40:30;-4.70;99.90
72865;DHT22;61000;48.120;11.548;2024-01-11T01:43:06;-4.80;99.90
72865;DHT22;61000;48.120;11.548;2024-01-11T01:45:33;-4.80;99.90
72865;DHT22;61000;48.120;11.548;2024-01-11T01:48:00;-4.80;99.90
72865;DHT22;61000;48.120;11.548;2024-01-11T01:50:28;-4.80;99.90
72865;DHT22;61000;48.120;11.548;2024-01-11T01:52:55;-4.70;99.90
72865;DHT22;61000;48.120;11.548;2024-01-11T01:55:22;-4.60;99.90
72865;DHT22;61000;48.120;11.548;2024-01-11T01:57:50;-4.70;99.90
72865;DHT22;61000;48.120;11.548;2024-01-11T02:00:19;-4.60;99.90
72865;DHT22;61000;48.120;11.548;2024-01-11T02:02:50;-4.60;99.90
72865;DHT22;61000;48.120;11.548;2024-01-11T02:05:18;-4.60;99.90
72865;DHT22;61000;48.120;11.548;2024-01-11T02:07:45;-4.70;99.90
72865;DHT22;61000;48.120;11.548;2024-01-11T02:10:12;-4.70;99.90
72865;DHT22;61000;48.120;11.548;2024-01-11T02:12:39;-4.70;99.90
72865;DHT22;61000;48.120;11.548;2024-01-11T02:15:08;-4.70;99.90
72865;DHT22;61000;48.120;11.548;2024-01-11T02:17:36;-4.80;99.90
72865;DHT22;61000;48.120;11.548;2024-01-11T02:20:07;-4.80;99.90
72865;DHT22;61000;48.120;11.548;2024-01-11T02:22:35;-4.90;99.90
72865;DHT22;61000;48.120;11.548;2024-01-11T02:25:06;-5.00;99.90
72865;DHT22;61000;48.120;11.548;2024-01-11T02:27:45;-5.10;99.90
72865;DHT22;61000;48.120;11.548;2024-01-11T02:30:12;-5.00;99.90
72865;DHT22;61000;48.120;11.548;2024-01-11T02:32:39;-5.10;99.90
72865;DHT22;61000;48.120;11.548;2024-01-11T02:35:07;-5.10;99.90
72865;DHT22;61000;48.120;11.548;2024-01-11T02:37:35;-5.10;99.90
72865;DHT22;61000;48.120;11.548;2024-01-11T02:40:03;-5.00;99.90
72865;DHT22;61000;48.120;11.548;2024-01-11T02:42:32;-5.00;99.90
72865;DHT22;61000;48.120;11.548;2024-01-11T02:44:59;-4.90;99.90
72865;DHT22;61000;48.120;11.548;2024-01-11T02:47:26;-4.90;99.90
72865;DHT22;61000;48.120;11.548;2024-01-11T02:49:53;-4.90;99.90
72865;DHT22;61000;48.120;11.548;2024-01-11T02:52:19;-4.80;99.90
72865;DHT22;61000;48.120;11.548;2024-01-11T02:54:46;-4.90;99.90
72865;DHT22;61000;48.120;11.548;2024-01-11T02:57:13;-4.80;99.90
72865;DHT22;61000;48.120;11.548;2024-01-11T02:59:43;-4.90;99.90
72865;DHT22;61000;48.120;11.548;2024-01-11T03:02:10;-4.80;99.90
72865;DHT22;61000;48.120;11.548;2024-01-11T03:04:37;-4.90;99.90
72865;DHT22;61000;48.120;11.548;2024-01-11T03:07:04;-4.90;99.90
72865;DHT22;61000;48.120;11.548;2024-01-11T03:09:30;-4.90;99.90
72865;DHT22;61000;48.120;11.548;2024-01-11T03:11:57;-4.90;99.90
72865;DHT22;61000;48.120;11.548;2024-01-11T03:14:24;-4.90;99.90
72865;DHT22;61000;48.120;11.548;2024-01-11T03:16:52;-4.90;99.90
72865;DHT22;61000;48.120;11.548;2024-01-11T03:19:19;-4.90;99.90
72865;DHT22;61000;48.120;11.548;2024-01-11T03:21:46;-4.90;99.90
72865;DHT22;61000;48.120;11.548;2024-01-11T03:24:13;-4.90;99.90
72865;DHT22;61000;48.120;11.548;2024-01-11T03:26:41;-4.90;99.90
72865;DHT22;61000;48.120;11.548;2024-01-11T03:29:08;-5.00;99.90
72865;DHT22;61000;48.120;11.548;2024-01-11T03:31:35;-5.00;99.90
72865;DHT22;61000;48.120;11.548;2024-01-11T03:34:05;-5.00;99.90
72865;DHT22;61000;48.120;11.548;2024-01-11T03:36:31;-5.10;99.90
72865;DHT22;61000;48.120;11.548;2024-01-11T03:38:58;-5.00;99.90
72865;DHT22;61000;48.120;11.548;2024-01-11T03:41:25;-5.10;99.90
72865;DHT22;61000;48.120;11.548;2024-01-11T03:43:52;-5.10;99.90
72865;DHT22;61000;48.120;11.548;2024-01-11T03:46:19;-5.00;99.90
72865;DHT22;61000;48.120;11.548;2024-01-11T03:48:47;-5.00;99.90
72865;DHT22;61000;48.120;11.548;2024-01-11T03:51:15;-5.00;99.90
72865;DHT22;61000;48.120;11.548;2024-01-11T03:53:42;-5.00;99.90
72865;DHT22;61000;48.120;11.548;2024-01-11T03:56:09;-5.00;99.90
72865;DHT22;61000;48.120;11.548;2024-01-11T03:58:36;-5.00;99.90
72865;DHT22;61000;48.120;11.548;2024-01-11T04:01:04;-5.00;99.90
72865;DHT22;61000;48.120;11.548;2024-01-11T04:03:32;-4.90;99.90
72865;DHT22;61000;48.120;11.548;2024-01-11T04:05:59;-5.00;99.90
72865;DHT22;61000;48.120;11.548;2024-01-11T04:08:28;-5.00;99.90
72865;DHT22;61000;48.120;11.548;2024-01-11T04:10:54;-4.90;99.90
72865;DHT22;61000;48.120;11.548;2024-01-11T04:13:21;-4.90;99.90
72865;DHT22;61000;48.120;11.548;2024-01-11T04:15:48;-4.90;99.90
72865;DHT22;61000;48.120;11.548;2024-01-11T04:18:15;-4.90;99.90
72865;DHT22;61000;48.120;11.548;2024-01-11T04:20:42;-4.90;99.90
72865;DHT22;61000;48.120;11.548;2024-01-11T04:23:09;-4.80;99.90
72865;DHT22;61000;48.120;11.548;2024-01-11T04:25:37;-4.80;99.90
72865;DHT22;61000;48.120;11.548;2024-01-11T04:28:04;-4.90;99.90
72865;DHT22;61000;48.120;11.548;2024-01-11T04:30:31;-4.90;99.90
72865;DHT22;61000;48.120;11.548;2024-01-11T04:32:58;-4.80;99.90
72865;DHT22;61000;48.120;11.548;2024-01-11T04:35:25;-4.80;99.90
72865;DHT22;61000;48.120;11.548;2024-01-11T04:37:52;-4.80;99.90
72865;DHT22;61000;48.120;11.548;2024-01-11T04:40:21;-4.80;99.90
72865;DHT22;61000;48.120;11.548;2024-01-11T04:42:49;-4.90;99.90
72865;DHT22;61000;48.120;11.548;2024-01-11T04:45:16;-4.90;99.90
72865;DHT22;61000;48.120;11.548;2024-01-11T04:47:43;-4.90;99.90
72865;DHT22;61000;48.120;11.548;2024-01-11T04:50:10;-4.80;99.90
72865;DHT22;61000;48.120;11.548;2024-01-11T04:52:37;-4.80;99.90
72865;DHT22;61000;48.120;11.548;2024-01-11T04:55:04;-4.80;99.90
72865;DHT22;61000;48.120;11.548;2024-01-11T04:57:31;-4.80;99.90
72865;DHT22;61000;48.120;11.548;2024-01-11T04:59:59;-4.80;99.90
72865;DHT22;61000;48.120;11.548;2024-01-11T05:02:26;-4.80;99.90
72865;DHT22;61000;48.120;11.548;2024-01-11T05:04:53;-4.80;99.90
72865;DHT22;61000;48.120;11.548;2024-01-11T05:07:20;-4.80;99.90
72865;DHT22;61000;48.120;11.548;2024-01-11T05:09:47;-4.80;99.90
72865;DHT22;61000;48.120;11.548;2024-01-11T05:12:14;-4.70;99.90
72865;DHT22;61000;48.120;11.548;2024-01-11T05:14:41;-4.70;99.90
72865;DHT22;61000;48.120;11.548;2024-01-11T05:17:10;-4.70;99.90
72865;DHT22;61000;48.120;11.548;2024-01-11T05:19:36;-4.70;99.90
72865;DHT22;61000;48.120;11.548;2024-01-11T05:22:04;-4.70;99.90
72865;DHT22;61000;48.120;11.548;2024-01-11T05:24:30;-4.70;99.90
72865;DHT22;61000;48.120;11.548;2024-01-11T05:26:57;-4.80;99.90
72865;DHT22;61000;48.120;11.548;2024-01-11T05:29:24;-4.70;99.90
72865;DHT22;61000;48.120;11.548;2024-01-11T05:31:51;-4.70;99.90
72865;DHT22;61000;48.120;11.548;2024-01-11T05:34:20;-4.80;99.90
72865;DHT22;61000;48.120;11.548;2024-01-11T05:36:47;-4.90;99.90
72865;DHT22;61000;48.120;11.548;2024-01-11T05:39:17;-4.80;99.90
72865;DHT22;61000;48.120;11.548;2024-01-11T05:41:47;-4.80;99.90
72865;DHT22;61000;48.120;11.548;2024-01-11T05:44:14;-4.80;99.90
72865;DHT22;61000;48.120;11.548;2024-01-11T05:46:49;-4.90;99.90
72865;DHT22;61000;48.120;11.548;2024-01-11T05:49:22;-5.00;99.90
72865;DHT22;61000;48.120;11.548;2024-01-11T05:51:59;-5.00;99.90
72865;DHT22;61000;48.120;11.548;2024-01-11T05:54:32;-4.90;99.90
72865;DHT22;61000;48.120;11.548;2024-01-11T05:57:01;-4.80;99.90
72865;DHT22;61000;48.120;11.548;2024-01-11T05:59:32;-4.80;99.90
72865;DHT22;61000;48.120;11.548;2024-01-11T06:01:59;-4.80;99.90
72865;DHT22;61000;48.120;11.548;2024-01-11T06:04:32;-4.80;99.90
72865;DHT22;61000;48.120;11.548;2024-01-11T06:07:10;-4.80;99.90
72865;DHT22;61000;48.120;11.548;2024-01-11T06:09:37;-4.80;99.90
72865;DHT22;61000;48.120;11.548;2024-01-11T06:12:04;-4.80;99.90
72865;DHT22;61000;48.120;11.548;2024-01-11T06:14:37;-4.80;99.90
72865;DHT22;61000;48.120;11.548;2024-01-11T06:17:20;-4.90;99.90
72865;DHT22;61000;48.120;11.548;2024-01-11T06:26:07;-4.80;99.90
72865;DHT22;61000;48.120;11.548;2024-01-11T06:28:34;-5.00;99.90
72865;DHT22;61000;48.120;11.548;2024-01-11T06:31:01;-5.00;99.90
72865;DHT22;61000;48.120;11.548;2024-01-11T06:33:28;-5.10;99.90
72865;DHT22;61000;48.120;11.548;2024-01-11T06:35:55;-5.00;99.90
72865;DHT22;61000;48.120;11.548;2024-01-11T06:38:22;-5.00;99.90
72865;DHT22;61000;48.120;11.548;2024-01-11T06:40:49;-5.10;99.90
72865;DHT22;61000;48.120;11.548;2024-01-11T06:43:17;-5.00;99.90
72865;DHT22;61000;48.120;11.548;2024-01-11T06:45:44;-5.00;99.90
72865;DHT22;61000;48.120;11.548;2024-01-11T06:48:11;-5.10;99.90
72865;DHT22;61000;48.120;11.548;2024-01-11T06:50:38;-5.10;99.90
72865;DHT22;61000;48.120;11.548;2024-01-11T06:53:05;-5.10;99.90
72865;DHT22;61000;48.120;11.548;2024-01-11T06:55:33;-5.10;99.90
72865;DHT22;61000;48.120;11.548;2024-01-11T06:58:00;-5.20;99.90
72865;DHT22;61000;48.120;11.548;2024-01-11T07:00:29;-5.10;99.90
72865;DHT22;61000;48.120;11.548;2024-01-11T07:02:55;-5.10;99.90
72865;DHT22;61000;48.120;11.548;2024-01-11T07:05:22;-5.10;99.90
72865;DHT22;61000;48.120;11.548;2024-01-11T07:07:49;-5.10;99.90
72865;DHT22;61000;48.120;11.548;2024-01-11T07:10:16;-5.10;99.90
72865;DHT22;61000;48.120;11.548;2024-01-11T07:12:43;-5.10;99.90
72865;DHT22;61000;48.120;11.548;2024-01-11T07:15:11;-5.10;99.90
72865;DHT22;61000;48.120;11.548;2024-01-11T07:17:39;-5.20;99.90
72865;DHT22;61000;48.120;11.548;2024-01-11T07:20:08;-5.10;99.90
72865;DHT22;61000;48.120;11.548;2024-01-11T07:22:37;-5.10;99.90
72865;DHT22;61000;48.120;11.548;2024-01-11T07:25:05;-5.10;99.90
72865;DHT22;61000;48.120;11.548;2024-01-11T07:27:32;-5.10;99.90
72865;DHT22;61000;48.120;11.548;2024-01-11T07:29:59;-5.20;99.90
72865;DHT22;61000;48.120;11.548;2024-01-11T07:32:27;-5.20;99.90
72865;DHT22;61000;48.120;11.548;2024-01-11T07:34:56;-5.10;99.90
72865;DHT22;61000;48.120;11.548;2024-01-11T07:37:23;-5.20;99.90
72865;DHT22;61000;48.120;11.548;2024-01-11T07:39:51;-5.10;99.90
72865;DHT22;61000;48.120;11.548;2024-01-11T07:42:18;-5.10;99.90
72865;DHT22;61000;48.120;11.548;2024-01-11T07:44:45;-5.10;99.90
72865;DHT22;61000;48.120;11.548;2024-01-11T07:47:12;-5.00;99.90
72865;DHT22;61000;48.120;11.548;2024-01-11T07:49:38;-5.00;99.90
72865;DHT22;61000;48.120;11.548;2024-01-11T07:52:07;-4.90;99.90
72865;DHT22;61000;48.120;11.548;2024-01-11T07:54:34;-4.90;99.90
72865;DHT22;61000;48.120;11.548;2024-01-11T07:57:01;-5.10;99.90
72865;DHT22;61000;48.120;11.548;2024-01-11T07:59:31;-5.10;99.90
72865;DHT22;61000;48.120;11.548;2024-01-11T08:02:00;-5.00;99.90
72865;DHT22;61000;48.120;11.548;2024-01-11T08:04:27;-5.00;99.90
72865;DHT22;61000;48.120;11.548;2024-01-11T08:06:54;-5.00;99.90
72865;DHT22;61000;48.120;11.548;2024-01-11T08:09:22;-5.00;99.90
72865;DHT22;61000;48.120;11.548;2024-01-11T08:11:49;-5.00;99.90
72865;DHT22;61000;48.120;11.548;2024-01-11T08:14:18;-4.90;99.90
72865;DHT22;61000;48.120;11.548;2024-01-11T08:16:44;-4.80;99.90
72865;DHT22;61000;48.120;11.548;2024-01-11T08:19:11;-4.80;99.90
72865;DHT22;61000;48.120;11.548;2024-01-11T08:21:39;-4.80;99.90
72865;DHT22;61000;48.120;11.548;2024-01-11T08:24:07;-4.70;99.90
72865;DHT22;61000;48.120;11.548;2024-01-11T08:26:36;-4.70;99.90
72865;DHT22;61000;48.120;11.548;2024-01-11T08:29:02;-4.60;99.90
72865;DHT22;61000;48.120;11.548;2024-01-11T08:31:30;-4.60;99.90
72865;DHT22;61000;48.120;11.548;2024-01-11T08:33:58;-4.40;99.90
72865;DHT22;61000;48.120;11.548;2024-01-11T08:36:30;-4.50;99.90
72865;DHT22;61000;48.120;11.548;2024-01-11T08:38:58;-4.40;99.90
72865;DHT22;61000;48.120;11.548;2024-01-11T08:41:25;-4.50;99.90
72865;DHT22;61000;48.120;11.548;2024-01-11T08:43:53;-4.40;99.90
72865;DHT22;61000;48.120;11.548;2024-01-11T08:46:24;-4.50;99.90
72865;DHT22;61000;48.120;11.548;2024-01-11T08:48:51;-4.50;99.90
72865;DHT22;61000;48.120;11.548;2024-01-11T08:51:18;-4.40;99.90
72865;DHT22;61000;48.120;11.548;2024-01-11T08:53:45;-4.40;99.90
72865;DHT22;61000;48.120;11.548;2024-01-11T08:56:12;-4.50;99.90
72865;DHT22;61000;48.120;11.548;2024-01-11T08:58:41;-4.60;99.90
72865;DHT22;61000;48.120;11.548;2024-01-11T09:01:10;-4.50;99.90
72865;DHT22;61000;48.120;11.548;2024-01-11T09:03:37;-4.50;99.90
72865;DHT22;61000;48.120;11.548;2024-01-11T09:06:04;-4.50;99.90
72865;DHT22;61000;48.120;11.548;2024-01-11T09:08:31;-4.40;99.90
72865;DHT22;61000;48.120;11.548;2024-01-11T09:11:00;-4.30;99.90
72865;DHT22;61000;48.120;11.548;2024-01-11T09:13:28;-4.30;99.90
72865;DHT22;61000;48.120;11.548;2024-01-11T09:15:55;-4.20;99.90
72865;DHT22;61000;48.120;11.548;2024-01-11T09:18:23;-4.10;99.90
72865;DHT22;61000;48.120;11.548;2024-01-11T09:20:50;-4.20;99.90
72865;DHT22;61000;48.120;11.548;2024-01-11T09:23:17;-4.20;99.90
72865;DHT22;61000;48.120;11.548;2024-01-11T09:25:44;-4.20;99.90
72865;DHT22;61000;48.120;11.548;2024-01-11T09:28:11;-4.20;99.90
72865;DHT22;61000;48.120;11.548;2024-01-11T09:30:38;-4.20;99.90
72865;DHT22;61000;48.120;11.548;2024-01-11T09:33:05;-4.10;99.90
72865;DHT22;61000;48.120;11.548;2024-01-11T09:35:33;-4.10;99.90
72865;DHT22;61000;48.120;11.548;2024-01-11T09:38:00;-4.20;99.90
72865;DHT22;61000;48.120;11.548;2024-01-11T09:40:27;-4.30;99.90
72865;DHT22;61000;48.120;11.548;2024-01-11T09:42:54;-4.50;99.90
72865;DHT22;61000;48.120;11.548;2024-01-11T09:45:21;-4.50;99.90
72865;DHT22;61000;48.120;11.548;2024-01-11T09:47:49;-4.60;99.90
72865;DHT22;61000;48.120;11.548;2024-01-11T09:50:18;-4.70;99.90
72865;DHT22;61000;48.120;11.548;2024-01-11T09:52:48;-4.70;99.90
72865;DHT22;61000;48.120;11.548;2024-01-11T09:55:15;-4.70;99.90
72865;DHT22;61000;48.120;11.548;2024-01-11T09:57:44;-4.80;99.90
72865;DHT22;61000;48.120;11.548;2024-01-11T10:00:13;-4.70;99.90
72865;DHT22;61000;48.120;11.548;2024-01-11T10:02:44;-4.80;99.90
72865;DHT22;61000;48.120;11.548;2024-01-11T10:05:12;-4.60;99.90
72865;DHT22;61000;48.120;11.548;2024-01-11T10:07:40;-4.50;99.90
72865;DHT22;61000;48.120;11.548;2024-01-11T10:10:08;-4.50;99.90
72865;DHT22;61000;48.120;11.548;2024-01-11T10:12:36;-4.40;99.90
72865;DHT22;61000;48.120;11.548;2024-01-11T10:15:06;-4.30;99.90
72865;DHT22;61000;48.120;11.548;2024-01-11T10:17:35;-4.30;99.90
72865;DHT22;61000;48.120;11.548;2024-01-11T10:20:03;-4.10;99.90
72865;DHT22;61000;48.120;11.548;2024-01-11T10:22:30;-4.10;99.90
72865;DHT22;61000;48.120;11.548;2024-01-11T10:25:12;-4.00;99.90
72865;DHT22;61000;48.120;11.548;2024-01-11T10:27:40;-3.90;99.90
72865;DHT22;61000;48.120;11.548;2024-01-11T10:30:09;-3.80;99.90
72865;DHT22;61000;48.120;11.548;2024-01-11T10:32:38;-3.80;99.90
72865;DHT22;61000;48.120;11.548;2024-01-11T10:35:05;-3.60;99.90
72865;DHT22;61000;48.120;11.548;2024-01-11T10:37:32;-3.60;99.90
72865;DHT22;61000;48.120;11.548;2024-01-11T10:40:03;-3.60;99.90
72865;DHT22;61000;48.120;11.548;2024-01-11T10:42:41;-3.70;99.90
72865;DHT22;61000;48.120;11.548;2024-01-11T10:45:13;-3.80;99.90
72865;DHT22;61000;48.120;11.548;2024-01-11T10:47:47;-3.70;99.90
72865;DHT22;61000;48.120;11.548;2024-01-11T10:50:16;-3.70;99.90
72865;DHT22;61000;48.120;11.548;2024-01-11T10:52:54;-3.80;99.90
72865;DHT22;61000;48.120;11.548;2024-01-11T10:55:22;-3.60;99.90
72865;DHT22;61000;48.120;11.548;2024-01-11T10:57:53;-3.70;99.90
72865;DHT22;61000;48.120;11.548;2024-01-11T11:00:21;-3.60;99.90
72865;DHT22;61000;48.120;11.548;2024-01-11T11:02:50;-3.70;99.90
72865;DHT22;61000;48.120;11.548;2024-01-11T11:05:19;-3.80;99.90
72865;DHT22;61000;48.120;11.548;2024-01-11T11:07:48;-3.80;99.90
72865;DHT22;61000;48.120;11.548;2024-01-11T11:10:17;-3.80;99.90
72865;DHT22;61000;48.120;11.548;2024-01-11T11:12:45;-3.80;99.90
72865;DHT22;61000;48.120;11.548;2024-01-11T11:15:14;-3.80;99.90
72865;DHT22;61000;48.120;11.548;2024-01-11T11:17:42;-3.70;99.90
72865;DHT22;61000;48.120;11.548;2024-01-11T11:20:11;-3.60;99.90
72865;DHT22;61000;48.120;11.548;2024-01-11T11:22:40;-3.60;99.90
72865;DHT22;61000;48.120;11.548;2024-01-11T11:25:08;-3.40;99.90
72865;DHT22;61000;48.120;11.548;2024-01-11T11:27:36;-3.40;99.90
72865;DHT22;61000;48.120;11.548;2024-01-11T11:30:04;-3.30;99.90
72865;DHT22;61000;48.120;11.548;2024-01-11T11:32:43;-3.20;99.90
72865;DHT22;61000;48.120;11.548;2024-01-11T11:35:10;-3.20;99.90
72865;DHT22;61000;48.120;11.548;2024-01-11T11:37:37;-3.20;99.90
72865;DHT22;61000;48.120;11.548;2024-01-11T11:40:05;-3.20;99.90
72865;DHT22;61000;48.120;11.548;2024-01-11T11:42:34;-3.20;99.90
72865;DHT22;61000;48.120;11.548;2024-01-11T11:45:01;-3.20;99.90
72865;DHT22;61000;48.120;11.548;2024-01-11T11:47:34;-3.10;99.90
72865;DHT22;61000;48.120;11.548;2024-01-11T11:50:08;-3.20;99.90
72865;DHT22;61000;48.120;11.548;2024-01-11T11:52:37;-3.10;99.90
72865;DHT22;61000;48.120;11.548;2024-01-11T11:55:06;-3.10;99.90
72865;DHT22;61000;48.120;11.548;2024-01-11T11:57:34;-3.00;99.90
72865;DHT22;61000;48.120;11.548;2024-01-11T12:00:01;-3.00;99.90
72865;DHT22;61000;48.120;11.548;2024-01-11T12:02:37;-3.00;99.90
72865;DHT22;61000;48.120;11.548;2024-01-11T12:05:04;-2.90;99.90
72865;DHT22;61000;48.120;11.548;2024-01-11T12:07:33;-2.90;99.90
72865;DHT22;61000;48.120;11.548;2024-01-11T12:10:00;-2.90;99.90
72865;DHT22;61000;48.120;11.548;2024-01-11T12:12:28;-2.80;99.90
72865;DHT22;61000;48.120;11.548;2024-01-11T12:14:55;-2.80;99.90
72865;DHT22;61000;48.120;11.548;2024-01-11T12:17:21;-2.70;99.90
72865;DHT22;61000;48.120;11.548;2024-01-11T12:19:48;-2.80;99.90
72865;DHT22;61000;48.120;11.548;2024-01-11T12:22:17;-3.00;99.90
72865;DHT22;61000;48.120;11.548;2024-01-11T12:24:46;-2.90;99.90
72865;DHT22;61000;48.120;11.548;2024-01-11T12:27:13;-2.90;99.90
72865;DHT22;61000;48.120;11.548;2024-01-11T12:29:40;-2.80;99.90
72865;DHT22;61000;48.120;11.548;2024-01-11T12:32:08;-2.80;99.90
72865;DHT22;61000;48.120;11.548;2024-01-11T12:34:37;-2.70;99.90
72865;DHT22;61000;48.120;11.548;2024-01-11T12:37:05;-2.70;99.90
72865;DHT22;61000;48.120;11.548;2024-01-11T12:39:32;-2.70;99.90
72865;DHT22;61000;48.120;11.548;2024-01-11T12:42:00;-2.70;99.90
72865;DHT22;61000;48.120;11.548;2024-01-11T12:44:27;-2.50;99.90
72865;DHT22;61000;48.120;11.548;2024-01-11T12:46:54;-2.40;99.90
72865;DHT22;61000;48.120;11.548;2024-01-11T12:49:22;-2.50;99.90
72865;DHT22;61000;48.120;11.548;2024-01-11T12:51:49;-2.60;99.90
72865;DHT22;61000;48.120;11.548;2024-01-11T12:54:16;-2.80;99.90
72865;DHT22;61000;48.120;11.548;2024-01-11T12:56:45;-2.80;99.90
72865;DHT22;61000;48.120;11.548;2024-01-11T12:59:13;-2.80;99.90
72865;DHT22;61000;48.120;11.548;2024-01-11T13:01:42;-2.90;99.90
72865;DHT22;61000;48.120;11.548;2024-01-11T13:04:09;-2.90;99.90
72865;DHT22;61000;48.120;11.548;2024-01-11T13:06:37;-2.90;99.90
72865;DHT22;61000;48.120;11.548;2024-01-11T13:09:04;-2.80;99.90
72865;DHT22;61000;48.120;11.548;2024-01-11T13:11:31;-2.80;99.90
72865;DHT22;61000;48.120;11.548;2024-01-11T13:13:58;-2.80;99.90
72865;DHT22;61000;48.120;11.548;2024-01-11T13:16:31;-2.70;99.90
72865;DHT22;61000;48.120;11.548;2024-01-11T13:18:58;-2.70;99.90
72865;DHT22;61000;48.120;11.548;2024-01-11T13:21:24;-2.80;99.90
72865;DHT22;61000;48.120;11.548;2024-01-11T13:23:51;-2.80;99.90
72865;DHT22;61000;48.120;11.548;2024-01-11T13:26:19;-2.80;99.90
72865;DHT22;61000;48.120;11.548;2024-01-11T13:28:46;-2.80;99.90
72865;DHT22;61000;48.120;11.548;2024-01-11T13:31:13;-2.90;99.90
72865;DHT22;61000;48.120;11.548;2024-01-11T13:33:41;-2.70;99.90
72865;DHT22;61000;48.120;11.548;2024-01-11T13:36:08;-2.70;99.90
72865;DHT22;61000;48.120;11.548;2024-01-11T13:38:35;-2.70;99.90
72865;DHT22;61000;48.120;11.548;2024-01-11T13:41:02;-2.70;99.90
72865;DHT22;61000;48.120;11.548;2024-01-11T13:43:30;-2.60;99.90
72865;DHT22;61000;48.120;11.548;2024-01-11T13:45:57;-2.60;99.90
72865;DHT22;61000;48.120;11.548;2024-01-11T13:48:24;-2.60;99.90
72865;DHT22;61000;48.120;11.548;2024-01-11T13:50:52;-2.60;99.90
72865;DHT22;61000;48.120;11.548;2024-01-11T13:53:19;-2.50;99.90
72865;DHT22;61000;48.120;11.548;2024-01-11T13:55:49;-2.50;99.90
72865;DHT22;61000;48.120;11.548;2024-01-11T13:58:16;-2.50;99.90
72865;DHT22;61000;48.120;11.548;2024-01-11T14:00:44;-2.50;99.90
72865;DHT22;61000;48.120;11.548;2024-01-11T14:03:11;-2.60;99.90
72865;DHT22;61000;48.120;11.548;2024-01-11T14:05:38;-2.60;99.90
72865;DHT22;61000;48.120;11.548;2024-01-11T14:08:06;-2.60;99.90
72865;DHT22;61000;48.120;11.548;2024-01-11T14:10:34;-2.70;99.90
72865;DHT22;61000;48.120;11.548;2024-01-11T14:13:01;-2.60;99.90
72865;DHT22;61000;48.120;11.548;2024-01-11T14:15:28;-2.70;99.90
72865;DHT22;61000;48.120;11.548;2024-01-11T14:17:56;-2.60;99.90
72865;DHT22;61000;48.120;11.548;2024-01-11T14:20:23;-2.60;99.90
72865;DHT22;61000;48.120;11.548;2024-01-11T14:22:50;-2.70;99.90
72865;DHT22;61000;48.120;11.548;2024-01-11T14:25:20;-2.70;99.90
72865;DHT22;61000;48.120;11.548;2024-01-11T14:27:48;-2.80;99.90
72865;DHT22;61000;48.120;11.548;2024-01-11T14:30:15;-2.80;99.90
72865;DHT22;61000;48.120;11.548;2024-01-11T14:32:43;-2.80;99.90
72865;DHT22;61000;48.120;11.548;2024-01-11T14:35:11;-2.80;99.90
72865;DHT22;61000;48.120;11.548;2024-01-11T14:37:38;-2.80;99.90
72865;DHT22;61000;48.120;11.548;2024-01-11T14:40:06;-2.90;99.90
72865;DHT22;61000;48.120;11.548;2024-01-11T14:42:37;-2.90;99.90
72865;DHT22;61000;48.120;11.548;2024-01-11T14:45:04;-2.80;99.90
72865;DHT22;61000;48.120;11.548;2024-01-11T14:47:32;-2.80;99.90
72865;DHT22;61000;48.120;11.548;2024-01-11T14:49:59;-2.80;99.90
72865;DHT22;61000;48.120;11.548;2024-01-11T14:52:26;-2.80;99.90
72865;DHT22;61000;48.120;11.548;2024-01-11T14:54:53;-2.70;99.90
72865;DHT22;61000;48.120;11.548;2024-01-11T14:57:20;-2.80;99.90
72865;DHT22;61000;48.120;11.548;2024-01-11T14:59:49;-2.80;99.90
72865;DHT22;61000;48.120;11.548;2024-01-11T15:02:16;-2.80;99.90
72865;DHT22;61000;48.120;11.548;2024-01-11T15:04:42;-2.80;99.90
72865;DHT22;61000;48.120;11.548;2024-01-11T15:07:09;-2.80;99.90
72865;DHT22;61000;48.120;11.548;2024-01-11T15:09:37;-2.90;99.90
72865;DHT22;61000;48.120;11.548;2024-01-11T15:12:04;-2.80;99.90
72865;DHT22;61000;48.120;11.548;2024-01-11T15:14:31;-2.90;99.90
72865;DHT22;61000;48.120;11.548;2024-01-11T15:16:59;-2.90;99.90
72865;DHT22;61000;48.120;11.548;2024-01-11T15:19:27;-2.90;99.90
72865;DHT22;61000;48.120;11.548;2024-01-11T15:21:55;-2.90;99.90
72865;DHT22;61000;48.120;11.548;2024-01-11T15:24:22;-2.90;99.90
72865;DHT22;61000;48.120;11.548;2024-01-11T15:26:49;-2.90;99.90